createdAt,value
2019-05-13T10:58:02.323Z,26240
2019-05-13T10:59:02.273Z,25760
2019-05-13T11:00:05.958Z,25152
2019-05-13T11:01:02.707Z,24576
2019-05-13T11:02:02.104Z,23616
2019-05-13T11:03:00.276Z,22848
2019-05-13T11:04:02.536Z,21824
2019-05-13T11:05:02.903Z,21088
2019-05-13T11:06:00.303Z,20576
2019-05-13T11:07:02.825Z,20224
2019-05-13T11:08:02.003Z,20192
2019-05-13T11:09:02.000Z,20128
2019-05-13T11:10:02.258Z,20448
2019-05-13T11:11:02.025Z,20928
2019-05-13T11:12:01.998Z,21632
2019-05-13T11:13:01.524Z,21696
2019-05-13T11:16:17.605Z,19456
2019-05-13T11:16:30.156Z,19392
2019-05-13T11:17:38.223Z,18656
2019-05-13T11:18:31.655Z,18144
2019-05-13T11:19:38.555Z,17632
2019-05-13T11:20:32.351Z,17088
2019-05-13T11:21:32.050Z,16320
2019-05-13T11:22:32.106Z,15328
2019-05-13T11:23:32.109Z,14276
2019-05-13T11:24:32.403Z,13280
2019-05-13T11:25:32.328Z,12216
2019-05-13T11:26:35.781Z,11464
2019-05-13T11:27:32.321Z,10796
2019-05-13T11:28:31.672Z,10820
2019-05-13T11:29:32.296Z,11532
2019-05-13T11:30:31.908Z,13144
2019-05-13T11:31:32.510Z,15544
2019-05-13T11:32:31.704Z,18272
2019-05-13T11:33:31.780Z,20480
2019-05-13T11:34:32.814Z,21952
2019-05-13T11:35:31.921Z,22112
2019-05-13T11:36:33.236Z,21472
2019-05-13T11:37:31.980Z,20288
2019-05-13T11:38:32.574Z,19072
2019-05-13T11:39:31.862Z,17504
2019-05-13T11:40:31.754Z,16672
2019-05-13T11:41:32.585Z,15712
2019-05-13T11:42:32.703Z,14472
2019-05-13T11:43:37.721Z,13316
2019-05-13T11:44:32.142Z,11968
2019-05-13T11:45:31.518Z,10952
2019-05-13T11:46:32.446Z,10152
2019-05-13T11:47:32.202Z,9624
2019-05-13T11:48:32.240Z,9964
2019-05-13T11:49:31.536Z,10592
2019-05-13T11:50:30.691Z,11072
2019-05-13T11:51:34.465Z,11760
2019-05-13T11:52:31.543Z,12568
2019-05-13T11:53:46.494Z,13772
2019-05-13T11:54:30.022Z,13892
2019-05-13T11:55:30.032Z,14140
2019-05-13T11:56:33.607Z,13764
2019-05-13T11:57:31.556Z,13240
2019-05-13T11:58:32.455Z,12740
2019-05-13T11:59:32.664Z,12148
2019-05-13T12:00:31.775Z,11912
2019-05-13T12:01:32.617Z,11096
2019-05-13T12:02:32.634Z,10104
2019-05-13T12:03:32.356Z,9504
2019-05-13T12:04:34.314Z,8900
2019-05-13T12:05:32.624Z,8936
2019-05-13T12:06:33.772Z,9180
2019-05-13T12:07:32.864Z,9700
2019-05-13T12:08:33.741Z,9924
2019-05-13T12:09:31.953Z,10836
2019-05-13T12:10:32.601Z,11632
2019-05-13T12:11:33.055Z,12684
2019-05-13T12:15:28.647Z,12396
2019-05-13T12:17:55.226Z,12940
2019-05-13T12:18:55.188Z,11928
2019-05-13T12:19:56.567Z,11156
2019-05-13T12:20:56.277Z,10332
2019-05-13T12:21:56.661Z,10012
2019-05-13T12:22:54.484Z,9816
2019-05-13T12:23:55.257Z,9844
2019-05-13T12:24:54.588Z,9960
2019-05-13T12:25:55.506Z,10276
2019-05-13T12:26:55.707Z,10616
2019-05-13T12:27:54.408Z,11784
2019-05-13T12:28:56.153Z,13380
2019-05-13T12:29:55.384Z,15188
2019-05-13T12:30:55.349Z,16160
2019-05-13T12:31:55.135Z,17472
2019-05-13T12:32:54.512Z,18400
2019-05-13T12:33:54.886Z,19648
2019-05-13T12:34:55.186Z,20224
2019-05-13T12:35:56.001Z,20352
2019-05-13T12:36:52.273Z,20192
2019-05-13T12:37:55.783Z,18944
2019-05-13T12:38:56.282Z,17856
2019-05-13T12:39:55.548Z,15872
2019-05-13T12:40:55.477Z,13992
2019-05-13T12:41:56.072Z,12828
2019-05-13T12:42:58.493Z,11984
2019-05-13T12:43:55.987Z,11104
2019-05-13T12:45:16.952Z,10524
2019-05-13T12:45:55.595Z,10308
2019-05-13T12:46:58.974Z,10040
2019-05-13T12:47:55.456Z,9756
2019-05-13T12:48:52.477Z,9208
2019-05-13T12:49:52.471Z,8236
2019-05-13T12:50:56.171Z,6620
2019-05-13T12:52:00.287Z,5736
2019-05-13T12:52:53.973Z,5548
2019-05-13T12:53:55.318Z,5760
2019-05-13T12:54:55.465Z,5724
2019-05-13T12:58:05.278Z,5996
2019-05-13T12:58:17.175Z,6028
2019-05-13T12:59:18.202Z,6232
2019-05-13T13:00:17.751Z,6508
2019-05-13T13:01:17.568Z,6880
2019-05-13T13:02:18.199Z,7328
2019-05-13T13:03:18.008Z,8000
2019-05-13T13:04:17.234Z,8584
2019-05-13T13:05:34.091Z,9320
2019-05-13T13:08:52.241Z,12108
2019-05-13T13:09:01.588Z,12252
2019-05-13T13:10:02.104Z,13400
2019-05-13T13:11:02.234Z,14288
2019-05-13T13:12:02.513Z,14780
2019-05-13T13:13:04.643Z,15248
2019-05-13T13:14:19.713Z,15512
2019-05-13T13:15:36.772Z,15968
2019-05-13T13:16:06.050Z,15648
2019-05-13T13:17:06.353Z,14916
2019-05-13T13:18:04.776Z,14564
2019-05-13T13:19:04.775Z,14140
2019-05-13T13:20:17.646Z,14036
2019-05-13T13:21:16.997Z,14472
2019-05-13T13:22:15.929Z,14680
2019-05-13T13:23:06.590Z,14572
2019-05-13T13:24:06.703Z,14176
2019-05-13T13:25:09.470Z,13120
2019-05-13T13:26:17.599Z,12320
2019-05-13T13:28:34.033Z,12392
2019-05-13T13:29:33.626Z,13356
2019-05-13T13:30:34.948Z,13608
2019-05-13T13:31:35.969Z,13076
2019-05-13T13:32:35.395Z,12332
2019-05-13T13:33:33.920Z,12628
2019-05-13T13:34:36.184Z,13336
2019-05-13T13:35:33.685Z,14092
2019-05-13T13:36:35.871Z,14176
2019-05-13T13:37:33.664Z,13968
2019-05-13T13:38:35.117Z,14568
2019-05-13T13:39:34.917Z,15384
2019-05-13T13:40:40.758Z,16096
2019-05-13T13:41:32.639Z,15904
2019-05-13T13:42:32.924Z,14988
2019-05-13T13:43:41.787Z,14380
2019-05-13T13:46:54.657Z,13812
2019-05-13T13:47:05.060Z,13872
2019-05-13T13:48:15.478Z,14436
2019-05-13T13:49:04.496Z,14820
2019-05-13T13:50:05.016Z,14776
2019-05-13T13:51:13.667Z,14076
2019-05-13T13:52:05.124Z,12808
2019-05-13T13:53:05.105Z,11312
2019-05-13T13:54:04.498Z,10024
2019-05-13T13:55:18.649Z,8804
2019-05-13T13:56:06.923Z,8252
2019-05-13T13:57:07.269Z,7932
2019-05-13T13:58:06.890Z,7804
2019-05-13T13:59:09.212Z,7716
2019-05-13T14:01:13.559Z,7616
2019-05-13T14:01:38.300Z,7648
2019-05-13T14:02:43.064Z,7656
2019-05-13T14:03:45.607Z,7636
2019-05-13T14:04:34.868Z,7812
2019-05-13T14:05:42.748Z,8288
2019-05-13T14:07:42.359Z,9768
2019-05-13T14:07:54.553Z,9892
2019-05-13T14:08:54.494Z,10352
2019-05-13T14:09:53.787Z,10548
2019-05-13T14:10:53.925Z,10480
2019-05-13T14:11:53.996Z,10668
2019-05-13T14:12:54.791Z,10580
2019-05-13T14:13:54.133Z,10552
2019-05-13T14:14:54.530Z,10408
2019-05-13T14:15:54.968Z,10248
2019-05-13T14:16:56.502Z,10300
2019-05-13T14:17:54.149Z,10648
2019-05-13T14:18:54.538Z,11144
2019-05-13T14:19:54.633Z,11640
2019-05-13T14:20:55.245Z,12028
2019-05-13T14:21:54.544Z,12420
2019-05-13T14:23:02.359Z,12524
2019-05-13T14:23:54.467Z,12568
2019-05-13T14:24:54.294Z,12264
2019-05-13T14:25:55.464Z,11840
2019-05-13T14:26:55.316Z,11328
2019-05-13T14:27:54.962Z,10900
2019-05-13T14:28:55.794Z,10624
2019-05-13T14:29:57.503Z,10064
2019-05-13T14:31:01.840Z,9500
2019-05-13T14:31:54.528Z,9240
2019-05-13T14:32:54.387Z,9220
2019-05-13T14:33:54.635Z,9044
2019-05-13T14:34:54.839Z,8796
2019-05-13T14:35:53.081Z,8568
2019-05-13T14:37:01.024Z,8116
2019-05-13T14:37:54.199Z,7872
2019-05-13T14:38:55.014Z,7864
2019-05-13T14:39:52.224Z,8044
2019-05-13T14:40:54.316Z,8516
2019-05-13T14:41:54.193Z,9148
2019-05-13T14:42:54.903Z,9920
2019-05-13T14:43:54.177Z,10708
2019-05-13T14:44:54.428Z,11672
2019-05-13T14:46:04.921Z,12900
2019-05-13T14:46:57.173Z,13868
2019-05-13T14:47:52.175Z,14760
2019-05-13T14:48:52.084Z,15020
2019-05-13T14:49:54.704Z,14684
2019-05-13T14:50:54.596Z,14668
2019-05-13T14:51:56.365Z,14872
2019-05-13T14:52:54.740Z,14408
2019-05-13T14:53:54.459Z,13632
2019-05-13T14:54:53.887Z,12524
2019-05-13T14:55:54.220Z,11288
2019-05-13T14:56:54.581Z,9612
2019-05-13T14:57:54.963Z,8048
2019-05-13T14:58:54.552Z,6608
2019-05-13T14:59:53.849Z,5936
2019-05-13T15:01:18.547Z,5884
2019-05-13T15:01:54.321Z,6244
2019-05-13T15:02:54.249Z,7244
2019-05-13T15:03:54.476Z,8516
2019-05-13T15:04:54.768Z,9632
2019-05-13T15:05:52.211Z,10244
2019-05-13T15:06:51.852Z,10520
2019-05-13T15:07:55.133Z,10508
2019-05-13T15:08:54.954Z,10084
2019-05-13T15:09:54.008Z,9392
2019-05-13T15:10:55.671Z,8728
2019-05-13T15:11:55.080Z,8084
2019-05-13T15:12:54.857Z,7708
2019-05-13T15:14:02.362Z,7748
2019-05-13T15:14:54.699Z,8064
2019-05-13T15:15:54.077Z,8648
2019-05-13T15:17:15.053Z,9772
2019-05-13T15:17:54.364Z,10392
2019-05-13T15:18:54.791Z,11232
2019-05-13T15:19:52.539Z,12344
2019-05-13T15:20:54.693Z,13284
2019-05-13T15:21:54.411Z,13868
2019-05-13T15:22:54.237Z,14104
2019-05-13T15:23:54.232Z,14004
2019-05-13T15:24:54.183Z,13680
2019-05-13T15:25:53.897Z,13156
2019-05-13T15:26:54.126Z,12852
2019-05-13T15:27:55.104Z,12296
2019-05-13T15:28:54.514Z,11888
2019-05-13T15:29:54.135Z,11572
2019-05-13T15:30:53.956Z,11112
2019-05-13T15:31:53.919Z,10476
2019-05-13T15:32:54.865Z,9572
2019-05-13T15:33:54.703Z,8692
2019-05-13T15:34:54.320Z,7868
2019-05-13T15:35:54.264Z,7284
2019-05-13T15:36:53.939Z,6964
2019-05-13T15:37:54.781Z,7120
2019-05-13T15:38:54.251Z,7564
2019-05-13T15:39:54.189Z,8044
2019-05-13T15:40:54.537Z,8372
2019-05-13T15:41:54.612Z,8356
2019-05-13T15:42:54.022Z,7920
2019-05-13T15:43:54.410Z,7348
2019-05-13T15:44:53.028Z,6912
2019-05-13T15:45:53.731Z,6616
2019-05-13T15:46:54.660Z,6424
2019-05-13T15:47:53.949Z,6272
2019-05-13T15:48:53.869Z,6064
2019-05-13T15:49:51.855Z,5884
2019-05-13T15:50:53.776Z,5688
2019-05-13T15:51:52.384Z,5600
2019-05-13T15:52:51.862Z,5524
2019-05-13T15:54:17.028Z,5468
2019-05-13T15:54:54.538Z,5440
2019-05-13T15:55:53.940Z,5340
2019-05-13T15:56:52.039Z,5284
2019-05-13T15:57:54.135Z,5336
2019-05-13T15:58:55.115Z,5452
2019-05-13T15:59:54.266Z,5600
2019-05-13T16:00:52.441Z,5772
2019-05-13T16:01:54.750Z,5968
2019-05-13T16:02:54.625Z,6120
2019-05-13T16:03:52.378Z,6096
2019-05-13T16:05:07.385Z,6304
2019-05-13T16:05:54.090Z,6536
2019-05-13T16:06:54.490Z,6748
2019-05-13T16:07:54.563Z,6952
2019-05-13T16:08:54.394Z,6776
2019-05-13T16:09:52.580Z,6672
2019-05-13T16:10:53.405Z,6704
2019-05-13T16:11:54.501Z,6652
2019-05-13T16:12:54.135Z,6472
2019-05-13T16:13:53.872Z,6364
2019-05-13T16:14:51.930Z,6332
2019-05-13T16:15:52.002Z,6368
2019-05-13T16:16:51.709Z,6300
2019-05-13T16:17:54.438Z,5992
2019-05-13T16:18:53.890Z,5548
2019-05-13T16:19:53.378Z,5068
2019-05-13T16:20:54.442Z,4620
2019-05-13T16:21:54.130Z,4444
2019-05-13T16:22:52.662Z,4336
2019-05-13T16:23:54.385Z,4208
2019-05-13T16:24:52.303Z,4112
2019-05-13T16:25:54.460Z,4072
2019-05-13T16:26:54.458Z,4096
2019-05-13T16:27:52.071Z,4200
2019-05-13T16:28:54.713Z,4208
2019-05-13T16:29:53.844Z,4096
2019-05-13T16:30:53.995Z,4132
2019-05-13T16:31:52.112Z,4112
2019-05-13T16:32:56.911Z,4116
2019-05-13T16:33:52.195Z,4172
2019-05-13T16:34:54.414Z,4172
2019-05-13T16:35:54.077Z,4244
2019-05-13T16:36:52.976Z,4240
2019-05-13T16:37:51.595Z,4240
2019-05-13T16:38:52.207Z,4212
2019-05-13T16:39:54.322Z,4176
2019-05-13T16:40:53.886Z,4240
2019-05-13T16:41:54.039Z,4380
2019-05-13T16:42:54.237Z,4536
2019-05-13T16:43:51.564Z,4608
2019-05-13T16:44:53.902Z,4588
2019-05-13T16:45:52.198Z,4520
2019-05-13T16:46:53.613Z,4424
2019-05-13T16:48:08.557Z,4280
2019-05-13T16:48:51.532Z,4180
2019-05-13T16:49:52.818Z,4044
2019-05-13T16:50:51.509Z,3940
2019-05-13T16:51:54.170Z,3860
2019-05-13T16:52:53.536Z,3800
2019-05-13T16:53:52.222Z,3708
2019-05-13T16:54:53.067Z,3572
2019-05-13T16:55:53.453Z,3404
2019-05-13T16:56:51.851Z,3292
2019-05-13T16:57:53.655Z,3192
2019-05-13T16:58:52.120Z,3144
2019-05-13T16:59:53.983Z,3136
2019-05-13T17:00:55.916Z,3128
2019-05-13T17:01:53.578Z,3084
2019-05-13T17:02:54.124Z,3012
2019-05-13T17:03:53.597Z,2956
2019-05-13T17:04:51.964Z,2904
2019-05-13T17:05:53.704Z,2852
2019-05-13T17:06:53.098Z,2832
2019-05-13T17:07:53.886Z,2848
2019-05-13T17:08:53.966Z,2936
2019-05-13T17:09:52.085Z,3072
2019-05-13T17:10:53.861Z,3268
2019-05-13T17:11:51.896Z,3452
2019-05-13T17:12:52.314Z,3632
2019-05-13T17:13:53.787Z,3828
2019-05-13T17:14:52.191Z,3864
2019-05-13T17:15:52.204Z,3780
2019-05-13T17:16:51.823Z,3600
2019-05-13T17:17:51.540Z,3360
2019-05-13T17:18:52.017Z,3136
2019-05-13T17:19:55.876Z,2872
2019-05-13T17:20:52.010Z,2660
2019-05-13T17:21:51.947Z,2508
2019-05-13T17:22:53.605Z,2404
2019-05-13T17:23:52.304Z,2360
2019-05-13T17:24:53.492Z,2344
2019-05-13T17:25:51.962Z,2352
2019-05-13T17:26:52.215Z,2376
2019-05-13T17:27:53.954Z,2396
2019-05-13T17:28:51.884Z,2388
2019-05-13T17:29:51.648Z,2368
2019-05-13T17:30:51.912Z,2340
2019-05-13T17:31:51.539Z,2312
2019-05-13T17:32:51.622Z,2308
2019-05-13T17:33:51.936Z,2320
2019-05-13T17:34:53.980Z,2344
2019-05-13T17:35:51.219Z,2364
2019-05-13T17:36:51.863Z,2372
2019-05-13T17:37:53.549Z,2384
2019-05-13T17:38:51.197Z,2396
2019-05-13T17:39:51.194Z,2400
2019-05-13T17:40:57.926Z,2364
2019-05-13T17:41:52.168Z,2316
2019-05-13T17:42:51.171Z,2264
2019-05-13T17:43:51.789Z,2232
2019-05-13T17:44:54.066Z,2232
2019-05-13T17:45:52.278Z,2248
2019-05-13T17:46:52.160Z,2304
2019-05-13T17:47:51.991Z,2388
2019-05-13T17:48:51.991Z,2484
2019-05-13T17:49:52.083Z,2560
2019-05-13T17:50:52.059Z,2584
2019-05-13T17:51:51.653Z,2532
2019-05-13T17:52:53.745Z,2420
2019-05-13T17:53:51.989Z,2324
2019-05-13T17:54:51.763Z,2248
2019-05-13T17:55:51.563Z,2212
2019-05-13T17:56:51.062Z,2204
2019-05-13T17:57:51.081Z,2192
2019-05-13T17:58:51.048Z,2180
2019-05-13T17:59:52.065Z,2184
2019-05-13T18:00:52.022Z,2192
2019-05-13T18:01:51.647Z,2200
2019-05-13T18:02:51.472Z,2208
2019-05-13T18:03:51.709Z,2236
2019-05-13T18:04:52.068Z,2288
2019-05-13T18:05:51.454Z,2352
2019-05-13T18:06:52.279Z,2404
2019-05-13T18:07:51.357Z,2428
2019-05-13T18:08:51.738Z,2420
2019-05-13T18:09:51.953Z,2372
2019-05-13T18:10:51.445Z,2268
2019-05-13T18:11:52.803Z,2108
2019-05-13T18:12:53.443Z,1948
2019-05-13T18:13:51.824Z,1836
2019-05-13T18:14:51.614Z,1768
2019-05-13T18:15:50.925Z,1724
2019-05-13T18:16:50.914Z,1696
2019-05-13T18:17:52.247Z,1680
2019-05-13T18:18:56.526Z,1672
2019-05-13T18:19:51.447Z,1664
2019-05-13T18:20:52.015Z,1664
2019-05-13T18:21:51.601Z,1640
2019-05-13T18:22:52.292Z,1592
2019-05-13T18:23:52.117Z,1528
2019-05-13T18:24:51.852Z,1456
2019-05-13T18:25:51.520Z,1392
2019-05-13T18:26:52.067Z,1340
2019-05-13T18:27:52.075Z,1280
2019-05-13T18:28:51.436Z,1228
2019-05-13T18:29:51.291Z,1184
2019-05-13T18:30:51.487Z,1140
2019-05-13T18:31:52.386Z,1096
2019-05-13T18:32:51.740Z,1052
2019-05-13T18:33:51.127Z,1008
2019-05-13T18:34:50.769Z,960
2019-05-13T18:35:52.517Z,916
2019-05-13T18:36:51.540Z,860
2019-05-13T18:37:50.746Z,796
2019-05-13T18:38:50.735Z,736
2019-05-13T18:39:52.005Z,684
2019-05-13T18:40:52.545Z,628
2019-05-13T18:41:50.729Z,584
2019-05-13T18:42:51.393Z,544
2019-05-13T18:43:52.896Z,504
2019-05-13T18:44:51.341Z,468
2019-05-13T18:45:52.515Z,432
2019-05-13T18:46:52.283Z,396
2019-05-13T18:47:51.344Z,360
2019-05-13T18:49:06.677Z,320
2019-05-13T18:49:50.654Z,296
2019-05-13T18:50:52.299Z,272
2019-05-13T18:51:50.651Z,248
2019-05-13T18:52:52.415Z,228
2019-05-13T18:53:51.884Z,212
2019-05-13T18:54:51.349Z,196
2019-05-13T18:55:52.373Z,176
2019-05-13T18:56:54.602Z,160
2019-05-13T18:57:51.789Z,144
2019-05-13T18:58:50.597Z,132
2019-05-13T18:59:52.006Z,120
2019-05-13T19:00:52.367Z,108
2019-05-13T19:01:52.865Z,96
2019-05-13T19:02:50.545Z,88
2019-05-13T19:03:50.748Z,76
2019-05-13T19:04:52.210Z,68
2019-05-13T19:05:50.516Z,60
2019-05-13T19:06:51.595Z,56
2019-05-13T19:07:51.238Z,48
2019-05-13T19:08:52.660Z,40
2019-05-13T19:09:52.242Z,36
2019-05-13T19:10:52.167Z,32
2019-05-13T19:11:51.511Z,28
2019-05-13T19:12:50.459Z,24
2019-05-13T19:13:52.123Z,20
2019-05-13T19:14:51.618Z,20
2019-05-13T19:15:51.662Z,20
2019-05-13T19:16:50.179Z,12
2019-05-13T19:17:51.996Z,12
2019-05-13T19:18:50.420Z,12
2019-05-13T19:19:51.444Z,8
2019-05-13T19:20:51.280Z,8
2019-05-13T19:21:51.097Z,8
2019-05-13T19:22:51.791Z,8
2019-05-13T19:23:51.277Z,4
2019-05-13T19:24:51.753Z,4
2019-05-13T19:25:51.315Z,4
2019-05-13T19:26:52.084Z,4
2019-05-13T19:27:51.684Z,4
2019-05-13T19:28:51.594Z,0
2019-05-13T19:29:52.164Z,4
2019-05-13T19:30:51.550Z,4
2019-05-13T19:31:50.975Z,4
2019-05-13T19:32:52.004Z,0
2019-05-13T19:33:54.475Z,0
2019-05-13T19:34:51.578Z,0
2019-05-13T19:35:51.772Z,0
2019-05-13T19:36:51.570Z,0
2019-05-13T19:37:51.536Z,0
2019-05-13T19:38:51.222Z,0
2019-05-13T19:39:50.213Z,0
2019-05-13T19:40:50.210Z,0
2019-05-13T19:41:50.203Z,0
2019-05-13T19:42:51.027Z,0
2019-05-13T19:43:50.993Z,0
2019-05-13T19:44:51.120Z,0
2019-05-13T19:45:51.863Z,0
2019-05-13T19:46:52.261Z,0
2019-05-13T19:47:51.806Z,0
2019-05-13T19:48:52.124Z,0
2019-05-13T19:49:54.707Z,0
2019-05-13T19:50:52.079Z,0
2019-05-13T19:51:52.110Z,0
2019-05-13T19:52:51.835Z,0
2019-05-13T19:53:53.985Z,0
2019-05-13T19:54:51.367Z,0
2019-05-13T19:55:51.952Z,0
2019-05-13T19:56:52.010Z,0
2019-05-13T19:57:51.641Z,0
2019-05-13T19:58:50.044Z,0
2019-05-13T19:59:50.028Z,0
2019-05-13T20:00:51.562Z,0
2019-05-13T20:01:51.605Z,0
2019-05-13T20:02:50.008Z,0
2019-05-13T20:03:51.556Z,0
2019-05-13T20:04:51.824Z,0
2019-05-13T20:05:51.381Z,0
2019-05-13T20:06:51.862Z,0
2019-05-13T20:07:52.152Z,0
2019-05-13T20:08:51.771Z,0
2019-05-13T20:09:51.806Z,0
2019-05-13T20:10:51.453Z,0
2019-05-13T20:11:54.946Z,0
2019-05-13T20:12:51.264Z,0
2019-05-13T20:13:51.773Z,0
2019-05-13T20:14:51.694Z,0
2019-05-13T20:15:51.780Z,0
2019-05-13T20:16:52.280Z,0
2019-05-13T20:17:51.945Z,0
2019-05-13T20:18:51.756Z,0
2019-05-13T20:19:58.425Z,0
2019-05-13T20:20:51.710Z,0
2019-05-13T20:21:51.491Z,0
2019-05-13T20:22:51.595Z,0
2019-05-13T20:23:51.729Z,0
2019-05-13T20:24:51.384Z,0
2019-05-13T20:25:52.055Z,0
2019-05-13T20:26:51.993Z,0
2019-05-13T20:27:51.494Z,0
2019-05-13T20:28:51.283Z,0
2019-05-13T20:29:51.168Z,0
2019-05-13T20:30:53.580Z,0
2019-05-13T20:31:51.684Z,0
2019-05-13T20:32:51.458Z,0
2019-05-13T20:33:51.530Z,0
2019-05-13T20:34:51.407Z,0
2019-05-13T20:35:49.726Z,0
2019-05-13T20:36:51.553Z,0
2019-05-13T20:37:51.558Z,0
2019-05-13T20:38:51.541Z,0
2019-05-13T20:39:51.473Z,0
2019-05-13T20:40:51.775Z,0
2019-05-13T20:41:55.214Z,0
2019-05-13T20:42:51.522Z,0
2019-05-13T20:43:52.033Z,0
2019-05-13T20:44:51.392Z,0
2019-05-13T20:45:51.661Z,0
2019-05-13T20:46:51.648Z,0
2019-05-13T20:47:49.557Z,0
2019-05-13T20:48:51.777Z,0
2019-05-13T20:50:04.841Z,0
2019-05-13T20:50:51.698Z,0
2019-05-13T20:51:51.515Z,0
2019-05-13T20:52:51.547Z,0
2019-05-13T20:53:51.604Z,0
2019-05-13T20:54:51.100Z,0
2019-05-13T20:55:49.479Z,0
2019-05-13T20:56:51.612Z,0
2019-05-13T20:57:49.487Z,0
2019-05-13T20:58:51.506Z,0
2019-05-13T20:59:51.501Z,0
2019-05-13T21:00:51.463Z,0
2019-05-13T21:01:51.127Z,0
2019-05-13T21:02:51.491Z,0
2019-05-13T21:03:51.492Z,0
2019-05-13T21:04:49.391Z,0
2019-05-13T21:05:51.857Z,0
2019-05-13T21:06:51.542Z,0
2019-05-13T21:07:51.439Z,0
2019-05-13T21:08:51.916Z,0
2019-05-13T21:09:51.214Z,0
2019-05-13T21:10:51.480Z,0
2019-05-13T21:11:51.303Z,0
2019-05-13T21:12:51.328Z,0
2019-05-13T21:13:51.575Z,0
2019-05-13T21:14:51.198Z,0
2019-05-13T21:15:51.825Z,0
2019-05-13T21:16:49.264Z,0
2019-05-13T21:17:51.426Z,0
2019-05-13T21:18:49.401Z,0
2019-05-13T21:19:52.544Z,0
2019-05-13T21:20:49.217Z,0
2019-05-13T21:21:50.934Z,0
2019-05-13T21:22:51.558Z,0
2019-05-13T21:23:49.211Z,0
2019-05-13T21:24:51.363Z,0
2019-05-13T21:25:51.027Z,0
2019-05-13T21:26:51.077Z,0
2019-05-13T21:27:51.331Z,0
2019-05-13T21:28:49.137Z,0
2019-05-13T21:29:48.881Z,0
2019-05-13T21:30:51.277Z,0
2019-05-13T21:31:49.115Z,0
2019-05-13T21:32:49.093Z,0
2019-05-13T21:33:51.153Z,0
2019-05-13T21:34:51.357Z,0
2019-05-13T21:35:51.084Z,0
2019-05-13T21:36:51.563Z,0
2019-05-13T21:37:51.034Z,0
2019-05-13T21:38:48.783Z,0
2019-05-13T21:39:49.015Z,0
2019-05-13T21:40:49.007Z,0
2019-05-13T21:41:48.995Z,0
2019-05-13T21:42:49.196Z,0
2019-05-13T21:43:48.973Z,0
2019-05-13T21:44:51.202Z,0
2019-05-13T21:45:48.948Z,0
2019-05-13T21:46:48.943Z,0
2019-05-13T21:47:48.929Z,0
2019-05-13T21:48:48.686Z,0
2019-05-13T21:49:51.497Z,0
2019-05-13T21:50:48.901Z,0
2019-05-13T21:51:49.060Z,0
2019-05-13T21:52:51.429Z,0
2019-05-13T21:53:48.863Z,0
2019-05-13T21:54:51.456Z,0
2019-05-13T21:55:48.841Z,0
2019-05-13T21:56:51.542Z,0
2019-05-13T21:57:48.817Z,0
2019-05-13T21:58:48.838Z,0
2019-05-13T21:59:54.038Z,0
2019-05-13T22:00:48.909Z,0
2019-05-13T22:01:49.479Z,0
2019-05-13T22:02:48.768Z,0
2019-05-13T22:03:51.250Z,0
2019-05-13T22:04:48.753Z,0
2019-05-13T22:05:51.276Z,0
2019-05-13T22:06:48.718Z,0
2019-05-13T22:07:49.318Z,0
2019-05-13T22:08:48.689Z,0
2019-05-13T22:09:51.270Z,0
2019-05-13T22:10:48.803Z,0
2019-05-13T22:11:51.115Z,0
2019-05-13T22:12:48.655Z,0
2019-05-13T22:13:51.230Z,0
2019-05-13T22:14:48.622Z,0
2019-05-13T22:15:48.794Z,0
2019-05-13T22:16:48.599Z,0
2019-05-13T22:17:51.249Z,0
2019-05-13T22:18:48.965Z,0
2019-05-13T22:21:11.801Z,0
2019-05-13T22:21:51.391Z,0
2019-05-13T22:22:48.703Z,0
2019-05-13T22:23:48.523Z,0
2019-05-13T22:24:51.102Z,0
2019-05-13T22:25:51.879Z,0
2019-05-13T22:26:51.086Z,0
2019-05-13T22:27:48.505Z,0
2019-05-13T22:28:51.092Z,0
2019-05-13T22:29:48.661Z,0
2019-05-13T22:30:48.466Z,0
2019-05-13T22:31:51.071Z,0
2019-05-13T22:32:48.939Z,0
2019-05-13T22:33:51.801Z,0
2019-05-13T22:34:51.035Z,0
2019-05-13T22:35:48.895Z,0
2019-05-13T22:36:48.400Z,0
2019-05-13T22:37:48.366Z,0
2019-05-13T22:38:51.611Z,0
2019-05-13T22:39:49.313Z,0
2019-05-13T22:40:49.184Z,0
2019-05-13T22:41:49.291Z,0
2019-05-13T22:42:48.747Z,0
2019-05-13T22:44:03.730Z,0
2019-05-13T22:44:48.917Z,0
2019-05-13T22:45:51.089Z,0
2019-05-13T22:46:48.608Z,0
2019-05-13T22:47:48.863Z,0
2019-05-13T22:48:51.069Z,0
2019-05-13T22:49:48.233Z,0
2019-05-13T22:50:48.697Z,0
2019-05-13T22:51:48.497Z,0
2019-05-13T22:52:49.137Z,0
2019-05-13T22:53:49.369Z,0
2019-05-13T22:54:48.440Z,0
2019-05-13T22:55:49.029Z,0
2019-05-13T22:56:48.451Z,0
2019-05-13T22:57:51.061Z,0
2019-05-13T22:58:48.351Z,0
2019-05-13T22:59:48.753Z,0
2019-05-13T23:00:51.534Z,0
2019-05-13T23:01:48.992Z,0
2019-05-13T23:02:52.187Z,0
2019-05-13T23:03:48.382Z,0
2019-05-13T23:04:51.050Z,0
2019-05-13T23:05:48.768Z,0
2019-05-13T23:06:48.055Z,0
2019-05-13T23:07:48.034Z,0
2019-05-13T23:08:48.025Z,0
2019-05-13T23:09:48.842Z,0
2019-05-13T23:10:51.272Z,0
2019-05-13T23:11:50.974Z,0
2019-05-13T23:12:51.397Z,0
2019-05-13T23:13:51.189Z,0
2019-05-13T23:14:48.541Z,0
2019-05-13T23:15:47.943Z,0
2019-05-13T23:16:49.370Z,0
2019-05-13T23:17:51.991Z,0
2019-05-13T23:18:51.167Z,0
2019-05-13T23:19:48.633Z,0
2019-05-13T23:20:48.217Z,0
2019-05-13T23:21:50.982Z,0
2019-05-13T23:22:48.625Z,0
2019-05-13T23:23:47.857Z,0
2019-05-13T23:24:48.951Z,0
2019-05-13T23:25:50.132Z,0
2019-05-13T23:26:51.352Z,0
2019-05-13T23:27:48.703Z,0
2019-05-13T23:28:48.759Z,0
2019-05-13T23:29:48.447Z,0
2019-05-13T23:30:50.989Z,0
2019-05-13T23:31:48.640Z,0
2019-05-13T23:32:47.756Z,0
2019-05-13T23:33:48.832Z,0
2019-05-13T23:34:51.198Z,0
2019-05-13T23:35:48.994Z,0
2019-05-13T23:36:51.444Z,0
2019-05-13T23:37:50.866Z,0
2019-05-13T23:38:48.719Z,0
2019-05-13T23:39:48.856Z,0
2019-05-13T23:40:51.374Z,0
2019-05-13T23:41:48.771Z,0
2019-05-13T23:42:47.653Z,0
2019-05-13T23:43:47.633Z,0
2019-05-13T23:44:48.321Z,0
2019-05-13T23:45:50.937Z,0
2019-05-13T23:46:51.282Z,0
2019-05-13T23:47:50.893Z,0
2019-05-13T23:48:48.455Z,0
2019-05-13T23:49:51.191Z,0
2019-05-13T23:50:48.680Z,0
2019-05-13T23:51:48.530Z,0
2019-05-13T23:52:51.002Z,0
2019-05-13T23:53:50.630Z,0
2019-05-13T23:54:51.623Z,0
2019-05-13T23:55:48.593Z,0
2019-05-13T23:56:48.846Z,0
2019-05-13T23:57:49.304Z,0
2019-05-13T23:58:48.561Z,0
2019-05-13T23:59:51.046Z,0
